createdAt,value
2022-11-12T00:01:05.755Z,11.04
2022-11-12T00:03:32.464Z,11.03
2022-11-12T00:05:59.531Z,11.04
2022-11-12T00:08:26.685Z,11.03
2022-11-12T00:10:53.503Z,11.02
2022-11-12T00:13:20.286Z,11.02
2022-11-12T00:15:47.576Z,11.02
2022-11-12T00:18:14.540Z,11.00
2022-11-12T00:20:41.275Z,10.97
2022-11-12T00:23:08.001Z,10.96
2022-11-12T00:25:34.883Z,10.93
2022-11-12T00:28:08.395Z,10.94
2022-11-12T00:30:38.192Z,10.93
2022-11-12T00:33:06.512Z,10.95
2022-11-12T00:35:34.049Z,10.94
2022-11-12T00:38:01.128Z,10.94
2022-11-12T00:40:29.373Z,10.92
2022-11-12T00:42:56.493Z,10.93
2022-11-12T00:45:24.319Z,10.93
2022-11-12T00:47:58.055Z,10.93
2022-11-12T00:50:25.615Z,10.92
2022-11-12T00:52:53.550Z,10.93
2022-11-12T00:55:20.541Z,10.94
2022-11-12T00:57:47.331Z,10.95
2022-11-12T01:00:19.128Z,10.96
2022-11-12T01:02:50.786Z,10.96
2022-11-12T01:05:19.899Z,10.96
2022-11-12T01:07:53.119Z,10.94
2022-11-12T01:10:22.496Z,10.92
2022-11-12T01:12:49.322Z,10.90
2022-11-12T01:15:16.186Z,10.91
2022-11-12T01:17:42.924Z,10.94
2022-11-12T01:20:09.942Z,10.94
2022-11-12T01:22:36.682Z,10.94
2022-11-12T01:25:03.716Z,10.94
2022-11-12T01:27:30.489Z,10.95
2022-11-12T01:29:57.222Z,10.95
2022-11-12T01:32:23.974Z,10.96
2022-11-12T01:34:51.544Z,10.95
2022-11-12T01:37:24.897Z,10.95
2022-11-12T01:39:51.612Z,10.94
2022-11-12T01:42:18.338Z,10.93
2022-11-12T01:44:46.465Z,10.93
2022-11-12T01:47:34.892Z,10.91
2022-11-12T01:50:21.240Z,10.90
2022-11-12T01:52:57.937Z,10.87
2022-11-12T01:55:32.137Z,10.86
2022-11-12T01:58:16.103Z,10.87
2022-11-12T02:00:43.356Z,10.86
2022-11-12T02:03:19.170Z,10.85
2022-11-12T02:05:53.160Z,10.85
2022-11-12T02:08:22.523Z,10.85
2022-11-12T02:10:50.657Z,10.84
2022-11-12T02:13:37.969Z,10.83
2022-11-12T02:16:08.571Z,10.81
2022-11-12T02:18:35.285Z,10.79
2022-11-12T02:21:09.188Z,10.76
2022-11-12T02:23:37.180Z,10.71
2022-11-12T02:26:04.016Z,10.67
2022-11-12T02:28:32.970Z,10.66
2022-11-12T02:30:59.734Z,10.64
2022-11-12T02:33:26.505Z,10.63
2022-11-12T02:35:53.266Z,10.61
2022-11-12T02:38:20.269Z,10.61
2022-11-12T02:40:46.978Z,10.62
2022-11-12T02:43:13.679Z,10.62
2022-11-12T02:45:40.404Z,10.61
2022-11-12T02:48:07.119Z,10.61
2022-11-12T02:50:33.843Z,10.62
2022-11-12T02:53:00.528Z,10.61
2022-11-12T02:55:27.301Z,10.62
2022-11-12T02:57:58.685Z,10.62
2022-11-12T03:00:25.821Z,10.63
2022-11-12T03:03:01.616Z,10.64
2022-11-12T03:05:31.523Z,10.63
2022-11-12T03:08:00.260Z,10.63
2022-11-12T03:10:28.554Z,10.64
2022-11-12T03:12:58.750Z,10.64
2022-11-12T03:15:27.083Z,10.63
2022-11-12T03:17:54.211Z,10.61
2022-11-12T03:20:21.204Z,10.61
2022-11-12T03:23:00.276Z,10.60
2022-11-12T03:25:28.832Z,10.57
2022-11-12T03:28:08.589Z,10.58
2022-11-12T03:30:39.165Z,10.56
2022-11-12T03:33:08.412Z,10.56
2022-11-12T03:35:36.011Z,10.56
2022-11-12T03:38:03.511Z,10.55
2022-11-12T03:40:30.768Z,10.54
2022-11-12T03:42:57.919Z,10.53
2022-11-12T03:45:27.537Z,10.53
2022-11-12T03:47:57.538Z,10.52
2022-11-12T03:50:28.901Z,10.50
2022-11-12T03:52:59.431Z,10.52
2022-11-12T03:55:28.576Z,10.52
2022-11-12T03:57:56.850Z,10.53
2022-11-12T04:00:26.754Z,10.53
2022-11-12T04:02:54.505Z,10.54
2022-11-12T04:05:40.319Z,10.55
2022-11-12T04:08:34.474Z,10.54
2022-11-12T04:11:10.048Z,10.52
2022-11-12T04:13:38.558Z,10.52
2022-11-12T04:16:34.676Z,10.53
2022-11-12T04:19:21.351Z,10.50
2022-11-12T04:21:56.162Z,10.50
2022-11-12T04:24:51.840Z,10.50
2022-11-12T04:27:21.453Z,10.48
2022-11-12T04:30:09.024Z,10.47
2022-11-12T04:32:50.222Z,10.43
2022-11-12T04:35:18.902Z,10.42
2022-11-12T04:37:46.228Z,10.43
2022-11-12T04:40:46.135Z,10.43
2022-11-12T04:43:36.147Z,10.39
2022-11-12T04:46:05.272Z,10.37
2022-11-12T04:48:32.096Z,10.37
2022-11-12T04:51:28.695Z,10.40
2022-11-12T04:53:55.635Z,10.40
2022-11-12T04:56:22.389Z,10.43
2022-11-12T04:58:49.237Z,10.46
2022-11-12T05:01:16.415Z,10.46
2022-11-12T05:03:43.215Z,10.48
2022-11-12T05:06:30.195Z,10.49
2022-11-12T05:08:56.956Z,10.48
2022-11-12T05:11:24.183Z,10.50
2022-11-12T05:13:51.245Z,10.51
2022-11-12T05:16:17.976Z,10.51
2022-11-12T05:18:44.943Z,10.52
2022-11-12T05:21:30.031Z,10.52
2022-11-12T05:23:57.068Z,10.53
2022-11-12T05:26:23.856Z,10.54
2022-11-12T05:28:50.737Z,10.55
2022-11-12T05:31:17.462Z,10.59
2022-11-12T05:33:44.178Z,10.62
2022-11-12T05:36:10.852Z,10.63
2022-11-12T05:38:39.081Z,10.65
2022-11-12T05:41:05.937Z,10.65
2022-11-12T05:43:32.659Z,10.65
2022-11-12T05:45:59.404Z,10.65
2022-11-12T05:48:26.457Z,10.64
2022-11-12T05:53:42.289Z,10.61
2022-11-12T05:56:10.486Z,10.61
2022-11-12T05:58:37.689Z,10.58
2022-11-12T06:01:05.065Z,10.57
2022-11-12T06:03:32.192Z,10.53
2022-11-12T06:05:59.383Z,10.50
2022-11-12T06:08:26.489Z,10.48
2022-11-12T06:10:54.750Z,10.44
2022-11-12T06:13:24.056Z,10.40
2022-11-12T06:15:52.509Z,10.35
2022-11-12T06:18:19.721Z,10.30
2022-11-12T06:21:07.270Z,10.27
2022-11-12T06:23:34.328Z,10.22
2022-11-12T06:26:01.495Z,10.18
2022-11-12T06:28:29.001Z,10.14
2022-11-12T06:30:56.053Z,10.11
2022-11-12T06:33:23.120Z,10.08
2022-11-12T06:36:03.137Z,10.04
2022-11-12T06:38:32.555Z,10.00
2022-11-12T06:40:59.596Z,9.97
2022-11-12T06:43:29.681Z,9.96
2022-11-12T06:46:01.820Z,9.93
2022-11-12T06:48:29.782Z,9.92
2022-11-12T06:50:57.947Z,9.90
2022-11-12T06:53:25.726Z,9.87
2022-11-12T06:55:52.902Z,9.86
2022-11-12T06:58:19.698Z,9.84
2022-11-12T07:00:46.481Z,9.83
2022-11-12T07:03:14.972Z,9.82
2022-11-12T07:05:41.789Z,9.81
2022-11-12T07:08:08.602Z,9.82
2022-11-12T07:10:35.333Z,9.83
2022-11-12T07:13:02.110Z,9.88
2022-11-12T07:15:28.842Z,9.91
2022-11-12T07:17:55.536Z,9.96
2022-11-12T07:20:22.277Z,10.09
2022-11-12T07:22:48.963Z,10.28
2022-11-12T07:25:16.036Z,10.48
2022-11-12T07:27:42.732Z,10.68
2022-11-12T07:30:10.169Z,10.85
2022-11-12T07:32:42.037Z,10.96
2022-11-12T07:35:11.756Z,11.01
2022-11-12T07:37:38.613Z,11.11
2022-11-12T07:40:06.589Z,11.29
2022-11-12T07:42:34.814Z,11.61
2022-11-12T07:45:01.726Z,12.02
2022-11-12T07:47:28.491Z,12.47
2022-11-12T07:49:55.369Z,12.99
2022-11-12T07:52:22.257Z,13.60
2022-11-12T07:54:48.988Z,14.34
2022-11-12T07:57:15.691Z,15.13
2022-11-12T07:59:46.124Z,15.83
2022-11-12T08:02:13.201Z,16.38
2022-11-12T08:04:39.929Z,16.83
2022-11-12T08:07:06.837Z,17.27
2022-11-12T08:09:33.733Z,17.73
2022-11-12T08:12:00.551Z,18.23
2022-11-12T08:14:27.263Z,18.82
2022-11-12T08:16:54.027Z,19.52
2022-11-12T08:19:20.791Z,20.30
2022-11-12T08:21:47.606Z,21.10
2022-11-12T08:24:14.331Z,21.87
2022-11-12T08:26:41.321Z,22.63
2022-11-12T08:29:09.015Z,23.29
2022-11-12T08:31:36.035Z,23.89
2022-11-12T08:34:12.125Z,24.49
2022-11-12T08:36:40.430Z,25.02
2022-11-12T08:39:07.858Z,25.43
2022-11-12T08:41:34.620Z,25.63
2022-11-12T08:44:07.123Z,25.80
2022-11-12T08:46:35.003Z,25.92
2022-11-12T08:49:01.917Z,26.08
2022-11-12T08:51:28.671Z,26.28
2022-11-12T08:53:55.455Z,26.58
2022-11-12T08:56:22.286Z,26.87
2022-11-12T08:58:48.982Z,27.06
2022-11-12T09:01:16.331Z,27.18
2022-11-12T09:03:43.157Z,27.25
2022-11-12T09:06:09.938Z,27.40
2022-11-12T09:08:37.840Z,27.57
2022-11-12T09:11:05.613Z,27.74
2022-11-12T09:13:32.906Z,27.86
2022-11-12T09:16:05.584Z,28.01
2022-11-12T09:18:33.874Z,28.19
2022-11-12T09:21:09.984Z,28.39
2022-11-12T09:23:37.235Z,28.60
2022-11-12T09:26:05.370Z,28.82
2022-11-12T09:28:33.062Z,29.05
2022-11-12T09:30:59.948Z,29.27
2022-11-12T09:33:32.865Z,29.44
2022-11-12T09:36:04.052Z,29.59
2022-11-12T09:38:31.394Z,29.69
2022-11-12T09:41:13.290Z,29.81
2022-11-12T09:43:53.209Z,29.98
2022-11-12T09:46:52.355Z,30.14
2022-11-12T09:49:28.525Z,30.37
2022-11-12T09:52:04.633Z,30.60
2022-11-12T09:54:35.013Z,30.81
2022-11-12T09:57:02.344Z,30.95
2022-11-12T09:59:33.159Z,31.04
2022-11-12T10:02:23.364Z,31.10
2022-11-12T10:05:09.836Z,31.03
2022-11-12T10:08:35.090Z,30.99
2022-11-12T10:11:21.969Z,30.99
2022-11-12T10:14:19.568Z,30.93
2022-11-12T10:17:28.320Z,30.79
2022-11-12T10:20:38.685Z,30.44
2022-11-12T10:23:19.776Z,30.23
2022-11-12T10:25:51.840Z,30.03
2022-11-12T10:28:39.320Z,29.79
2022-11-12T10:31:20.913Z,29.58
2022-11-12T10:33:48.081Z,29.38
2022-11-12T10:36:24.549Z,29.17
2022-11-12T10:38:54.917Z,28.95
2022-11-12T10:41:27.032Z,28.74
2022-11-12T10:44:00.663Z,28.52
2022-11-12T10:46:32.418Z,28.33
2022-11-12T10:49:02.436Z,28.18
2022-11-12T10:51:36.336Z,28.09
2022-11-12T10:54:30.136Z,27.97
2022-11-12T10:56:57.372Z,27.94
2022-11-12T10:59:26.214Z,27.92
2022-11-12T11:02:01.245Z,27.82
2022-11-12T11:04:33.756Z,27.71
2022-11-12T11:07:20.403Z,27.57
2022-11-12T11:10:00.343Z,27.43
2022-11-12T11:12:31.291Z,27.36
2022-11-12T11:15:16.244Z,27.26
2022-11-12T11:17:43.058Z,27.19
2022-11-12T11:20:47.473Z,27.03
2022-11-12T11:23:34.319Z,26.99
2022-11-12T11:26:18.793Z,26.91
2022-11-12T11:29:08.996Z,26.87
2022-11-12T11:32:01.880Z,26.82
2022-11-12T11:35:11.204Z,26.80
2022-11-12T11:38:02.387Z,26.77
2022-11-12T11:41:32.813Z,26.65
2022-11-12T11:44:42.869Z,26.48
2022-11-12T11:48:00.450Z,26.22
2022-11-12T11:50:35.720Z,26.03
2022-11-12T11:53:18.290Z,25.79
2022-11-12T11:55:57.192Z,25.60
2022-11-12T11:58:40.985Z,25.38
2022-11-12T12:01:42.564Z,25.06
2022-11-12T12:04:24.128Z,24.82
2022-11-12T12:07:20.260Z,24.48
2022-11-12T12:13:38.059Z,23.86
2022-11-12T12:16:46.103Z,23.65
2022-11-12T12:19:58.784Z,23.38
2022-11-12T12:22:45.045Z,23.20
2022-11-12T12:25:21.795Z,23.05
2022-11-12T12:28:26.637Z,22.84
2022-11-12T12:31:04.207Z,22.71
2022-11-12T12:33:55.976Z,22.54
2022-11-12T12:36:31.832Z,22.41
2022-11-12T12:39:14.445Z,22.25
2022-11-12T12:41:57.581Z,22.12
2022-11-12T12:44:49.852Z,21.99
2022-11-12T12:47:19.744Z,21.84
2022-11-12T12:49:49.817Z,21.75
2022-11-12T12:52:16.665Z,21.65
2022-11-12T12:54:52.449Z,21.54
2022-11-12T12:57:39.743Z,21.41
2022-11-12T13:00:38.356Z,21.28
2022-11-12T13:03:06.472Z,21.15
2022-11-12T13:05:40.296Z,21.07
2022-11-12T13:08:13.693Z,20.99
2022-11-12T13:10:41.331Z,20.88
2022-11-12T13:13:20.759Z,20.79
2022-11-12T13:15:53.151Z,20.68
2022-11-12T13:18:37.930Z,20.54
2022-11-12T13:21:11.978Z,20.46
2022-11-12T13:24:08.428Z,20.33
2022-11-12T13:26:56.665Z,20.22
2022-11-12T13:29:29.242Z,20.13
2022-11-12T13:32:31.295Z,20.02
2022-11-12T13:35:24.500Z,19.94
2022-11-12T13:37:52.270Z,19.90
2022-11-12T13:40:50.121Z,19.86
2022-11-12T13:43:38.909Z,19.77
2022-11-12T13:46:11.179Z,19.72
2022-11-12T13:48:49.658Z,19.69
2022-11-12T13:51:27.954Z,19.65
2022-11-12T13:53:54.955Z,19.63
2022-11-12T13:56:36.036Z,19.58
2022-11-12T13:59:29.180Z,19.53
2022-11-12T14:01:56.368Z,19.50
2022-11-12T14:04:24.861Z,19.46
2022-11-12T14:07:24.148Z,19.44
2022-11-12T14:10:20.046Z,19.37
2022-11-12T14:13:36.275Z,19.30
2022-11-12T14:16:18.782Z,19.25
2022-11-12T14:19:15.443Z,19.19
2022-11-12T14:21:42.280Z,19.17
2022-11-12T14:24:13.462Z,19.15
2022-11-12T14:26:43.052Z,19.10
2022-11-12T14:29:19.677Z,19.03
2022-11-12T14:32:02.768Z,18.97
2022-11-12T14:34:34.704Z,18.92
2022-11-12T14:37:02.052Z,18.89
2022-11-12T14:39:30.604Z,18.84
2022-11-12T14:41:59.661Z,18.82
2022-11-12T14:44:36.555Z,18.79
2022-11-12T14:47:04.093Z,18.76
2022-11-12T14:49:44.866Z,18.72
2022-11-12T14:52:31.048Z,18.65
2022-11-12T14:55:10.267Z,18.59
2022-11-12T14:57:37.488Z,18.53
2022-11-12T15:00:44.020Z,18.45
2022-11-12T15:03:30.654Z,18.40
2022-11-12T15:06:03.659Z,18.35
2022-11-12T15:08:35.877Z,18.33
2022-11-12T15:11:30.363Z,18.27
2022-11-12T15:14:01.862Z,18.25
2022-11-12T15:16:34.802Z,18.20
2022-11-12T15:19:18.383Z,18.18
2022-11-12T15:21:58.044Z,18.13
2022-11-12T15:24:36.542Z,18.09
2022-11-12T15:27:36.057Z,18.01
2022-11-12T15:30:19.742Z,17.97
2022-11-12T15:32:47.147Z,17.91
2022-11-12T15:35:44.287Z,17.89
2022-11-12T15:38:25.422Z,17.83
2022-11-12T15:40:57.696Z,17.79
2022-11-12T15:43:32.240Z,17.71
2022-11-12T15:45:59.258Z,17.66
2022-11-12T15:48:26.012Z,17.62
2022-11-12T15:50:52.968Z,17.55
2022-11-12T15:53:19.811Z,17.47
2022-11-12T15:55:47.197Z,17.41
2022-11-12T15:58:24.250Z,17.34
2022-11-12T16:00:51.101Z,17.25
2022-11-12T16:03:22.250Z,17.18
2022-11-12T16:05:49.014Z,17.09
2022-11-12T16:08:16.058Z,17.01
2022-11-12T16:10:46.277Z,16.96
2022-11-12T16:13:33.139Z,16.88
2022-11-12T16:16:04.915Z,16.77
2022-11-12T16:18:31.652Z,16.71
2022-11-12T16:20:58.466Z,16.66
2022-11-12T16:23:25.557Z,16.62
2022-11-12T16:25:52.585Z,16.56
2022-11-12T16:28:19.631Z,16.51
2022-11-12T16:30:47.746Z,16.44
2022-11-12T16:33:14.680Z,16.39
2022-11-12T16:35:41.770Z,16.36
2022-11-12T16:38:16.896Z,16.30
2022-11-12T16:40:45.360Z,16.25
2022-11-12T16:43:12.226Z,16.20
2022-11-12T16:45:42.044Z,16.14
2022-11-12T16:48:21.696Z,16.08
2022-11-12T16:50:49.076Z,16.06
2022-11-12T16:53:15.845Z,16.01
2022-11-12T16:55:42.566Z,16.00
2022-11-12T16:58:14.381Z,16.00
2022-11-12T17:00:45.719Z,15.98
2022-11-12T17:03:13.924Z,15.98
2022-11-12T17:05:41.003Z,15.97
2022-11-12T17:08:10.580Z,15.96
2022-11-12T17:10:37.465Z,15.94
2022-11-12T17:13:04.201Z,15.93
2022-11-12T17:15:30.907Z,15.91
2022-11-12T17:17:57.607Z,15.89
2022-11-12T17:20:24.323Z,15.87
2022-11-12T17:22:51.068Z,15.83
2022-11-12T17:25:17.810Z,15.79
2022-11-12T17:27:44.498Z,15.75
2022-11-12T17:30:12.085Z,15.72
2022-11-12T17:32:38.835Z,15.67
2022-11-12T17:35:06.375Z,15.62
2022-11-12T17:37:33.099Z,15.59
2022-11-12T17:39:59.776Z,15.55
2022-11-12T17:42:26.532Z,15.51
2022-11-12T17:44:53.206Z,15.46
2022-11-12T17:47:19.940Z,15.43
2022-11-12T17:49:46.631Z,15.38
2022-11-12T17:52:13.356Z,15.36
2022-11-12T17:54:40.175Z,15.31
2022-11-12T17:57:06.929Z,15.28
2022-11-12T17:59:33.626Z,15.25
2022-11-12T18:02:00.385Z,15.21
2022-11-12T18:04:30.731Z,15.18
2022-11-12T18:06:58.130Z,15.14
2022-11-12T18:09:25.044Z,15.10
2022-11-12T18:11:56.626Z,15.06
2022-11-12T18:14:24.528Z,14.99
2022-11-12T18:16:51.581Z,14.95
2022-11-12T18:19:18.441Z,14.88
2022-11-12T18:21:45.274Z,14.84
2022-11-12T18:24:16.448Z,14.80
2022-11-12T18:26:44.157Z,14.76
2022-11-12T18:29:12.458Z,14.72
2022-11-12T18:31:40.555Z,14.69
2022-11-12T18:34:13.334Z,14.66
2022-11-12T18:36:40.127Z,14.63
2022-11-12T18:39:06.914Z,14.61
2022-11-12T18:41:34.072Z,14.57
2022-11-12T18:44:01.420Z,14.54
2022-11-12T18:46:28.218Z,14.51
2022-11-12T18:48:54.964Z,14.46
2022-11-12T18:51:21.706Z,14.43
2022-11-12T18:53:48.523Z,14.38
2022-11-12T18:56:19.474Z,14.34
2022-11-12T18:58:47.177Z,14.29
2022-11-12T19:01:17.941Z,14.22
2022-11-12T19:03:44.722Z,14.19
2022-11-12T19:06:13.829Z,14.14
2022-11-12T19:08:41.663Z,14.10
2022-11-12T19:11:15.134Z,14.08
2022-11-12T19:13:43.033Z,14.05
2022-11-12T19:16:12.740Z,14.06
2022-11-12T19:18:41.474Z,14.06
2022-11-12T19:21:13.830Z,14.07
2022-11-12T19:23:41.391Z,14.10
2022-11-12T19:26:12.330Z,14.12
2022-11-12T19:28:39.648Z,14.13
2022-11-12T19:31:12.770Z,14.16
2022-11-12T19:33:39.957Z,14.17
2022-11-12T19:36:09.622Z,14.20
2022-11-12T19:38:36.580Z,14.22
2022-11-12T19:41:19.351Z,14.24
2022-11-12T19:43:47.213Z,14.26
2022-11-12T19:46:14.788Z,14.27
2022-11-12T19:48:42.091Z,14.30
2022-11-12T19:51:10.780Z,14.31
2022-11-12T19:53:44.233Z,14.32
2022-11-12T19:56:14.484Z,14.33
2022-11-12T19:58:46.205Z,14.34
2022-11-12T20:01:16.358Z,14.33
2022-11-12T20:03:43.893Z,14.31
2022-11-12T20:06:14.468Z,14.29
2022-11-12T20:08:41.876Z,14.27
2022-11-12T20:11:08.903Z,14.27
2022-11-12T20:13:35.845Z,14.27
2022-11-12T20:16:08.072Z,14.24
2022-11-12T20:18:34.968Z,14.25
2022-11-12T20:21:04.847Z,14.24
2022-11-12T20:23:35.865Z,14.20
2022-11-12T20:26:09.723Z,14.17
2022-11-12T20:28:38.917Z,14.14
2022-11-12T20:31:11.108Z,14.09
2022-11-12T20:33:42.410Z,14.06
2022-11-12T20:36:13.402Z,14.02
2022-11-12T20:38:43.722Z,13.98
2022-11-12T20:41:15.744Z,13.94
2022-11-12T20:43:42.753Z,13.89
2022-11-12T20:46:11.860Z,13.88
2022-11-12T20:48:43.185Z,13.85
2022-11-12T20:51:23.868Z,13.81
2022-11-12T20:53:58.700Z,13.77
2022-11-12T20:56:27.281Z,13.74
2022-11-12T20:58:54.154Z,13.69
2022-11-12T21:01:23.579Z,13.67
2022-11-12T21:03:50.813Z,13.64
2022-11-12T21:06:21.786Z,13.57
2022-11-12T21:08:48.896Z,13.54
2022-11-12T21:11:20.202Z,13.48
2022-11-12T21:13:47.075Z,13.47
2022-11-12T21:16:15.004Z,13.43
2022-11-12T21:18:42.200Z,13.39
2022-11-12T21:21:16.508Z,13.35
2022-11-12T21:23:44.938Z,13.31
2022-11-12T21:26:15.736Z,13.26
2022-11-12T21:28:54.313Z,13.22
2022-11-12T21:31:24.895Z,13.16
2022-11-12T21:34:00.556Z,13.14
2022-11-12T21:36:28.219Z,13.08
2022-11-12T21:38:55.299Z,13.06
2022-11-12T21:41:28.536Z,13.01
2022-11-12T21:43:55.353Z,12.99
2022-11-12T21:46:31.404Z,12.94
2022-11-12T21:48:58.519Z,12.91
2022-11-12T21:51:31.908Z,12.87
2022-11-12T21:54:02.445Z,12.86
2022-11-12T21:56:30.579Z,12.83
2022-11-12T21:59:01.311Z,12.80
2022-11-12T22:01:31.660Z,12.78
2022-11-12T22:03:59.752Z,12.75
2022-11-12T22:06:29.599Z,12.70
2022-11-12T22:08:58.289Z,12.66
2022-11-12T22:11:26.036Z,12.63
2022-11-12T22:13:52.743Z,12.58
2022-11-12T22:16:25.819Z,12.53
2022-11-12T22:18:55.658Z,12.52
2022-11-12T22:21:29.583Z,12.48
2022-11-12T22:23:58.089Z,12.44
2022-11-12T22:26:27.745Z,12.44
2022-11-12T22:28:57.122Z,12.42
2022-11-12T22:31:30.630Z,12.42
2022-11-12T22:34:00.842Z,12.38
2022-11-12T22:36:31.129Z,12.36
2022-11-12T22:38:58.362Z,12.30
2022-11-12T22:41:30.844Z,12.27
2022-11-12T22:44:00.822Z,12.22
2022-11-12T22:46:33.564Z,12.18
2022-11-12T22:49:01.112Z,12.14
2022-11-12T22:51:31.176Z,12.11
2022-11-12T22:54:01.551Z,12.08
2022-11-12T22:56:29.783Z,12.03
2022-11-12T22:58:57.827Z,11.99
2022-11-12T23:01:34.714Z,11.97
2022-11-12T23:04:05.497Z,11.94
2022-11-12T23:06:32.474Z,11.92
2022-11-12T23:09:00.604Z,11.92
2022-11-12T23:11:28.623Z,11.90
2022-11-12T23:13:56.520Z,11.88
2022-11-12T23:16:31.730Z,11.86
2022-11-12T23:18:59.647Z,11.84
2022-11-12T23:21:29.781Z,11.86
2022-11-12T23:23:58.329Z,11.86
2022-11-12T23:26:28.547Z,11.86
2022-11-12T23:28:55.266Z,11.88
2022-11-12T23:31:27.556Z,11.88
2022-11-12T23:33:57.247Z,11.89
2022-11-12T23:36:26.571Z,11.90
2022-11-12T23:38:54.110Z,11.90
2022-11-12T23:41:25.631Z,11.91
2022-11-12T23:43:54.890Z,11.91
2022-11-12T23:46:22.627Z,11.91
2022-11-12T23:48:49.857Z,11.91
2022-11-12T23:51:22.273Z,11.89
2022-11-12T23:53:49.739Z,11.87
2022-11-12T23:56:19.713Z,11.87
2022-11-12T23:58:47.309Z,11.86
